Time;durP1;ratioP1;P1;durP2;ratioP2;P2;SDS_P1;SDS_P2;PMS_P1;PMS_P2;Temp;Humidity;BMP_temperature;BMP_pressure;BME280_temperature;BME280_humidity;BME280_pressure;Samples;Min_cycle;Max_cycle;Signal;HPM_P1;HPM_P2
2023/11/16 00:06:43;;;;;;;0.98;0.00;;;4.90;87.90;;;;;;25638763;23;20440;-52
2023/11/16 00:16:45;;;;;;;0.00;0.00;;;5.10;88.10;;;;;;25597316;23;20005;-47
2023/11/16 00:26:46;;;;;;;0.00;0.00;;;5.30;87.20;;;;;;25598201;23;20017;-58
2023/11/16 00:36:49;;;;;;;0.25;0.10;;;5.20;89.30;;;;;;25597625;23;20008;-49
2023/11/16 00:46:51;;;;;;;0.03;0.00;;;5.10;88.70;;;;;;25597671;23;20016;-56
2023/11/16 00:56:53;;;;;;;0.13;0.00;;;5.30;88.80;;;;;;25597047;23;20075;-58
2023/11/16 01:06:55;;;;;;;0.00;0.00;;;5.30;89.80;;;;;;25596736;23;20001;-57
2023/11/16 01:17:01;;;;;;;0.00;0.00;;;5.10;88.70;;;;;;25594391;23;20009;-59
2023/11/16 01:27:15;;;;;;;0.00;0.00;;;5.00;91.20;;;;;;25635822;23;20005;-58
2023/11/16 01:37:23;;;;;;;0.10;0.00;;;4.90;90.70;;;;;;25636825;23;20005;-48
2023/11/16 01:47:25;;;;;;;0.00;0.00;;;5.00;90.10;;;;;;25636480;23;20005;-59
2023/11/16 01:57:27;;;;;;;0.00;0.00;;;5.20;90.20;;;;;;25593531;23;20009;-60
2023/11/16 02:07:29;;;;;;;0.20;0.00;;;5.00;90.20;;;;;;25593304;23;20337;-60
2023/11/16 02:17:31;;;;;;;0.00;0.00;;;4.80;91.70;;;;;;25594192;23;20072;-59
2023/11/16 02:27:32;;;;;;;0.00;0.00;;;4.80;92.40;;;;;;25606173;23;20005;-59
2023/11/16 02:37:35;;;;;;;0.00;0.00;;;4.80;91.60;;;;;;25607753;23;20008;-49
2023/11/16 02:47:36;;;;;;;0.20;0.00;;;4.70;91.10;;;;;;25607687;23;20005;-60
2023/11/16 02:57:40;;;;;;;0.05;0.00;;;4.60;92.30;;;;;;25607701;23;20039;-53
2023/11/16 03:07:42;;;;;;;0.20;0.00;;;4.60;91.50;;;;;;25580944;23;20009;-57
2023/11/16 03:17:45;;;;;;;0.00;0.00;;;4.60;91.40;;;;;;25605347;23;20009;-56
2023/11/16 03:27:46;;;;;;;0.00;0.00;;;4.70;91.30;;;;;;25605431;23;20008;-55
2023/11/16 03:37:49;;;;;;;0.00;0.00;;;4.60;91.90;;;;;;25344617;23;20047;-57
2023/11/16 03:47:52;;;;;;;0.08;0.08;;;4.30;91.30;;;;;;25318881;23;20013;-48
2023/11/16 03:57:53;;;;;;;0.10;0.10;;;4.20;90.50;;;;;;25343316;23;20073;-46
2023/11/16 04:07:56;;;;;;;0.10;0.00;;;4.10;91.50;;;;;;25380439;23;20329;-58
2023/11/16 04:17:58;;;;;;;0.00;0.00;;;3.80;91.50;;;;;;25598295;23;20020;-47
2023/11/16 04:28:01;;;;;;;0.20;0.00;;;3.70;91.50;;;;;;25596637;23;20337;-58
2023/11/16 04:38:04;;;;;;;0.00;0.00;;;3.80;90.70;;;;;;25597966;23;20056;-58
2023/11/16 04:48:05;;;;;;;0.00;0.00;;;3.80;91.20;;;;;;25597558;23;20012;-56
2023/11/16 04:58:07;;;;;;;0.13;0.00;;;3.80;91.50;;;;;;25597325;23;20005;-45
2023/11/16 05:08:09;;;;;;;0.30;0.00;;;3.70;91.80;;;;;;25597008;23;20005;-46
2023/11/16 05:18:11;;;;;;;0.00;0.00;;;3.60;92.90;;;;;;25570051;23;20475;-46
2023/11/16 05:28:14;;;;;;;0.00;0.00;;;3.40;92.70;;;;;;25596308;23;20328;-57
2023/11/16 05:38:17;;;;;;;0.43;0.00;;;3.40;92.40;;;;;;25595679;23;20001;-48
2023/11/16 05:48:19;;;;;;;0.05;0.00;;;3.40;93.10;;;;;;25595283;23;20008;-50
2023/11/16 05:58:21;;;;;;;0.00;0.00;;;3.40;93.00;;;;;;25592761;23;20059;-47
2023/11/16 06:08:23;;;;;;;0.90;0.00;;;3.40;92.40;;;;;;25594666;23;20059;-56
2023/11/16 06:18:26;;;;;;;0.13;0.05;;;3.40;92.70;;;;;;25594131;23;20056;-57
2023/11/16 06:28:28;;;;;;;0.00;0.00;;;3.40;93.00;;;;;;25594545;23;20081;-46
2023/11/16 06:38:31;;;;;;;0.00;0.00;;;3.40;93.20;;;;;;25595412;23;20400;-57
2023/11/16 06:48:33;;;;;;;0.28;0.10;;;3.50;93.00;;;;;;25593976;23;20001;-48
2023/11/16 06:58:35;;;;;;;0.10;0.00;;;3.60;93.30;;;;;;25594000;23;20012;-49
2023/11/16 07:08:37;;;;;;;0.25;0.00;;;3.70;93.10;;;;;;25596228;23;20005;-47
2023/11/16 07:18:39;;;;;;;2.20;0.00;;;3.70;93.50;;;;;;25600884;23;20009;-56
2023/11/16 07:28:45;;;;;;;0.10;0.00;;;4.10;93.30;;;;;;25600875;23;20075;-48
2023/11/16 07:38:47;;;;;;;11.30;0.25;;;4.80;92.50;;;;;;25598615;23;20009;-48
2023/11/16 07:48:49;;;;;;;0.32;0.00;;;5.90;91.10;;;;;;25601028;23;20060;-55
2023/11/16 07:58:52;;;;;;;0.20;0.00;;;7.20;90.10;;;;;;25599662;23;20013;-49
2023/11/16 08:08:54;;;;;;;0.73;0.00;;;8.30;86.00;;;;;;25598235;23;20275;-55
2023/11/16 08:18:56;;;;;;;0.00;0.00;;;9.30;85.00;;;;;;25598164;23;20009;-46
2023/11/16 08:28:59;;;;;;;0.15;0.00;;;9.90;83.90;;;;;;25598710;23;20005;-45
2023/11/16 08:39:02;;;;;;;0.20;0.00;;;10.50;82.30;;;;;;25597953;23;20382;-55
2023/11/16 08:49:04;;;;;;;1.85;0.05;;;10.80;80.50;;;;;;25597732;23;20001;-50
2023/11/16 08:59:07;;;;;;;0.30;0.00;;;11.10;76.40;;;;;;25597479;23;20005;-46
2023/11/16 09:09:33;;;;;;;0.13;0.10;;;11.60;81.50;;;;;;25596752;23;20005;-55
2023/11/16 09:19:31;;;;;;;0.10;0.00;;;12.40;79.30;;;;;;25595566;23;20047;-48
2023/11/16 09:29:36;;;;;;;0.10;0.00;;;13.20;77.80;;;;;;25595625;23;20012;-47
2023/11/16 09:39:38;;;;;;;1.38;0.13;;;13.20;76.30;;;;;;25596227;23;20013;-51
2023/11/16 09:49:43;;;;;;;0.20;0.10;;;12.90;77.30;;;;;;25594420;23;20028;-48
2023/11/16 09:59:48;;;;;;;1.95;0.10;;;12.90;79.10;;;;;;25594968;23;20001;-50
2023/11/16 10:09:53;;;;;;;0.15;0.10;;;12.70;75.40;;;;;;25593776;23;20001;-56
2023/11/16 10:19:56;;;;;;;1.50;0.30;;;11.90;81.10;;;;;;25593693;23;20005;-52
2023/11/16 10:30:00;;;;;;;0.90;0.30;;;11.70;86.30;;;;;;25594285;23;20429;-56
2023/11/16 10:40:03;;;;;;;1.35;0.60;;;11.40;88.00;;;;;;25594661;23;20013;-50
2023/11/16 10:50:06;;;;;;;0.90;0.50;;;11.10;90.50;;;;;;25602405;23;20436;-45
2023/11/16 11:00:16;;;;;;;1.90;0.70;;;10.80;90.60;;;;;;25602761;23;20017;-48
2023/11/16 11:10:21;;;;;;;;;;;10.80;90.90;;;;;;25643297;23;20104;-50
2023/11/16 11:20:36;;;;;;;1.08;0.50;;;10.60;90.60;;;;;;25600766;23;19915;-47
2023/11/16 11:30:49;;;;;;;1.27;0.60;;;10.40;90.90;;;;;;25641874;23;20008;-51
2023/11/16 11:40:59;;;;;;;0.98;0.60;;;10.50;90.50;;;;;;25641520;23;20009;-49
2023/11/16 11:51:04;;;;;;;2.40;0.50;;;10.60;91.00;;;;;;25601034;23;20005;-49
2023/11/16 12:01:10;;;;;;;0.47;0.30;;;11.00;86.80;;;;;;25640477;23;20009;-58
2023/11/16 12:11:18;;;;;;;2.42;0.30;;;11.30;86.70;;;;;;25598893;23;20005;-54
2023/11/16 12:21:22;;;;;;;1.73;0.63;;;11.70;87.80;;;;;;25622395;23;20503;-50
2023/11/16 12:31:31;;;;;;;1.80;0.45;;;11.60;89.40;;;;;;25597018;23;20005;-50
2023/11/16 12:41:40;;;;;;;1.15;0.30;;;11.10;87.50;;;;;;25639374;23;20005;-46
2023/11/16 12:51:44;;;;;;;0.43;0.30;;;10.60;86.40;;;;;;25597454;23;20005;-56
2023/11/16 13:01:48;;;;;;;1.63;0.65;;;10.10;90.30;;;;;;25596879;23;20496;-45
2023/11/16 13:11:50;;;;;;;1.23;0.50;;;9.70;90.40;;;;;;25597151;23;20310;-49
2023/11/16 13:21:52;;;;;;;1.20;0.63;;;9.40;91.90;;;;;;25595984;23;20433;-46
2023/11/16 13:31:55;;;;;;;2.03;0.68;;;9.40;91.80;;;;;;25595969;23;20005;-50
2023/11/16 13:42:00;;;;;;;1.10;0.60;;;9.30;92.10;;;;;;25595447;23;20009;-48
2023/11/16 13:52:05;;;;;;;1.70;0.55;;;9.20;91.60;;;;;;25593878;23;20059;-48
2023/11/16 14:02:07;;;;;;;1.00;0.70;;;8.80;91.70;;;;;;25594990;23;20009;-48
2023/11/16 14:12:15;;;;;;;2.08;0.80;;;8.50;92.30;;;;;;25594528;23;20018;-58
2023/11/16 14:22:20;;;;;;;1.65;1.08;;;8.20;92.30;;;;;;25593791;23;20013;-49
2023/11/16 14:32:27;;;;;;;1.90;0.93;;;7.70;92.90;;;;;;25594341;23;20341;-55
2023/11/16 14:42:29;;;;;;;3.20;1.10;;;7.40;95.40;;;;;;25635635;23;20425;-57
2023/11/16 14:52:43;;;;;;;4.18;2.13;;;7.10;94.40;;;;;;25635147;23;20017;-55
2023/11/16 15:02:45;;;;;;;3.53;2.00;;;6.70;95.30;;;;;;25593702;23;20008;-55
2023/11/16 15:12:50;;;;;;;5.22;2.25;;;6.70;96.40;;;;;;25593561;23;20005;-50
2023/11/16 15:22:52;;;;;;;3.38;1.85;;;6.40;97.10;;;;;;25593268;23;20333;-46
2023/11/16 15:32:57;;;;;;;2.50;0.47;;;5.80;98.30;;;;;;25598022;23;20005;-57
2023/11/16 15:43:04;;;;;;;0.50;0.20;;;5.80;95.60;;;;;;25641577;23;20433;-60
2023/11/16 15:53:13;;;;;;;3.72;0.40;;;5.70;95.70;;;;;;25610843;23;20005;-58
2023/11/16 16:03:31;;;;;;;1.45;0.32;;;6.10;94.30;;;;;;25640381;23;20013;-48
2023/11/16 16:13:39;;;;;;;1.77;1.13;;;6.30;94.30;;;;;;25640188;23;20102;-53
2023/11/16 16:23:42;;;;;;;4.32;1.40;;;5.80;95.90;;;;;;25597296;23;20013;-57
2023/11/16 16:33:47;;;;;;;3.50;1.10;;;5.50;96.40;;;;;;25598282;23;20067;-52
2023/11/16 16:43:49;;;;;;;4.20;1.33;;;5.10;97.90;;;;;;25597694;23;20013;-55
2023/11/16 16:53:54;;;;;;;3.55;1.80;;;4.90;98.90;;;;;;25597251;23;20155;-57
2023/11/16 17:04:05;;;;;;;2.33;1.40;;;5.00;99.10;;;;;;25638363;23;20009;-57
2023/11/16 17:14:07;;;;;;;4.28;2.00;;;5.20;99.10;;;;;;25596592;23;20012;-48
2023/11/16 17:24:09;;;;;;;4.55;1.60;;;5.00;99.50;;;;;;25596172;23;20005;-53
2023/11/16 17:34:11;;;;;;;4.13;1.60;;;4.70;99.90;;;;;;25596236;23;20004;-47
2023/11/16 17:44:13;;;;;;;3.42;1.45;;;4.70;99.90;;;;;;25595489;23;20013;-51
2023/11/16 17:54:15;;;;;;;1.98;1.00;;;4.50;99.90;;;;;;25593928;23;20000;-57
2023/11/16 18:04:17;;;;;;;2.20;1.05;;;4.20;99.90;;;;;;25593809;23;20013;-57
2023/11/16 18:14:19;;;;;;;2.60;0.80;;;3.90;99.90;;;;;;25594987;23;20028;-50
2023/11/16 18:24:21;;;;;;;1.40;0.47;;;3.40;99.20;;;;;;25593981;23;20005;-57
2023/11/16 18:34:41;;;;;;;0.88;0.45;;;3.20;99.90;;;;;;25594188;23;20056;-58
2023/11/16 18:44:43;;;;;;;1.13;0.43;;;3.20;99.70;;;;;;25635243;23;20020;-58
2023/11/16 18:54:46;;;;;;;3.83;0.73;;;3.40;99.90;;;;;;25594020;23;20005;-58
2023/11/16 19:04:50;;;;;;;4.75;0.77;;;4.70;99.90;;;;;;25595724;23;20009;-58
2023/11/16 19:14:58;;;;;;;3.00;0.68;;;5.50;99.90;;;;;;25642697;23;20059;-58
2023/11/16 19:25:01;;;;;;;1.60;0.55;;;6.00;99.90;;;;;;25600506;23;20067;-57
2023/11/16 19:35:04;;;;;;;6.00;0.60;;;6.20;99.90;;;;;;25600734;23;20013;-60
2023/11/16 19:45:07;;;;;;;7.13;1.13;;;6.10;99.90;;;;;;25599241;23;20009;-59
2023/11/16 19:55:11;;;;;;;4.75;1.00;;;6.10;99.90;;;;;;25599775;23;20005;-60
2023/11/16 20:05:13;;;;;;;4.72;1.08;;;6.00;99.90;;;;;;25595294;23;20005;-60
2023/11/16 20:15:15;;;;;;;2.40;0.68;;;6.20;99.90;;;;;;25598755;23;20001;-60
2023/11/16 20:25:19;;;;;;;3.75;0.90;;;6.30;99.90;;;;;;25598096;23;20017;-59
2023/11/16 20:35:21;;;;;;;4.15;1.23;;;6.40;99.90;;;;;;25598264;23;20005;-58
2023/11/16 20:45:23;;;;;;;7.03;1.10;;;6.40;99.90;;;;;;25597751;23;20032;-58
2023/11/16 20:55:25;;;;;;;4.75;1.27;;;6.50;99.90;;;;;;25597402;23;20044;-50
2023/11/16 21:05:28;;;;;;;5.78;1.10;;;6.40;99.90;;;;;;25597059;23;20013;-60
2023/11/16 21:15:30;;;;;;;4.03;0.82;;;6.50;99.90;;;;;;25596817;23;20005;-60
2023/11/16 21:25:32;;;;;;;3.03;0.93;;;6.60;99.90;;;;;;25595360;23;20425;-60
2023/11/16 21:35:33;;;;;;;4.03;0.90;;;6.40;99.90;;;;;;25596123;23;20318;-60
2023/11/16 21:45:39;;;;;;;2.83;0.90;;;6.40;99.90;;;;;;25595417;23;20005;-60
2023/11/16 21:55:43;;;;;;;5.93;1.40;;;6.30;99.90;;;;;;25636368;23;20009;-59
2023/11/16 22:05:45;;;;;;;4.50;1.02;;;6.20;99.90;;;;;;25594853;23;20005;-59
2023/11/16 22:15:47;;;;;;;5.47;1.27;;;6.20;99.90;;;;;;25594717;23;20340;-58
2023/11/16 22:25:49;;;;;;;6.45;1.50;;;6.20;99.90;;;;;;25593883;23;20020;-59
2023/11/16 22:35:50;;;;;;;8.10;1.30;;;6.40;99.90;;;;;;25594562;23;20332;-58
2023/11/16 22:45:52;;;;;;;3.58;1.20;;;6.40;99.90;;;;;;25602590;23;20009;-60
2023/11/16 22:55:54;;;;;;;5.75;1.48;;;6.40;99.90;;;;;;25602240;23;20067;-53
2023/11/16 23:05:56;;;;;;;6.03;1.52;;;6.60;99.90;;;;;;25601802;23;20506;-60
2023/11/16 23:15:58;;;;;;;4.97;1.80;;;6.50;99.90;;;;;;25601071;23;20022;-60
2023/11/16 23:26:00;;;;;;;6.28;1.90;;;6.60;99.90;;;;;;25600814;23;20020;-61
2023/11/16 23:36:02;;;;;;;4.65;1.70;;;6.60;99.90;;;;;;25600656;23;20001;-60
2023/11/16 23:46:05;;;;;;;4.20;1.35;;;6.50;99.90;;;;;;25600381;23;20005;-60
2023/11/16 23:56:07;;;;;;;2.78;1.27;;;6.50;99.90;;;;;;25641909;23;20009;-60
